Terminal Aerodrome Forecast
Issued by NWS

Home | Current Version | Previous Version | Text Only | Print | Product List | Glossary On
Versions: 1 2 3 4 5 6 7 8 9 10 11 12 13 14 15 16
000
FTUS46 KPDT 162320
TAFDLS
TAF
KDLS 162320Z 1700/1724 30010KT P6SM SCT040 BKN100
     FM170600 30003KT P6SM SCT050 BKN100
     FM171200 VRB03KT P6SM BKN050 OVC100
     FM172100 32005KT P6SM BKN050=

USA.gov is the U.S. government's official web portal to all federal, state and local government web resources and services.